Time;durP1;ratioP1;P1;durP2;ratioP2;P2;SDS_P1;SDS_P2;PMS_P1;PMS_P2;Temp;Humidity;BMP_temperature;BMP_pressure;BME280_temperature;BME280_humidity;BME280_pressure;Samples;Min_cycle;Max_cycle;Signal;HPM_P1;HPM_P2
2023/11/10 00:00:10;;;;;;;;;;;7.80;99.90;;;6.99;100.00;96437.50;5001074;28;1955;-67
2023/11/10 00:02:45;;;;;;;;;;;7.90;99.90;;;6.93;100.00;96426.63;4988549;28;1955;-68
2023/11/10 00:05:12;;;;;;;;;;;7.80;99.90;;;6.90;100.00;96431.03;4985467;28;1986;-68
2023/11/10 00:07:40;;;;;;;;;;;7.80;99.90;;;6.84;100.00;96439.06;4987158;28;1382;-67
2023/11/10 00:10:07;;;;;;;;;;;7.70;99.90;;;6.81;100.00;96436.59;4984750;28;2013;-67
2023/11/10 00:12:35;;;;;;;;;;;7.70;99.90;;;6.82;100.00;96435.72;4983884;28;2198;-68
2023/11/10 00:15:08;;;;;;;;;;;7.70;99.90;;;6.80;100.00;96434.13;4987057;28;1963;-68
2023/11/10 00:17:35;;;;;;;;;;;7.70;99.90;;;6.82;100.00;96437.44;4986287;28;2011;-68
2023/11/10 00:20:02;;;;;;;;;;;7.70;99.90;;;6.88;100.00;96438.00;4984466;28;1829;-68
2023/11/10 00:22:31;;;;;;;;;;;7.60;99.90;;;6.81;100.00;96439.19;4997368;28;2134;-68
2023/11/10 00:24:58;;;;;;;;;;;7.60;99.90;;;6.90;100.00;96432.78;4983687;28;1914;-68
2023/11/10 00:27:25;;;;;;;;;;;7.60;99.90;;;6.93;100.00;96429.22;4984372;28;2012;-68
2023/11/10 00:29:52;;;;;;;;;;;7.60;99.90;;;7.01;100.00;96425.38;4986521;28;1724;-68
2023/11/10 00:32:19;;;;;;;;;;;7.60;99.90;;;6.97;100.00;96439.31;4998047;28;1897;-68
2023/11/10 00:34:46;;;;;;;;;;;7.60;99.90;;;7.06;100.00;96422.56;4982266;28;1492;-68
2023/11/10 00:37:13;;;;;;;;;;;7.60;99.90;;;6.96;100.00;96421.34;4999884;28;1759;-68
2023/11/10 00:39:40;;;;;;;;;;;7.70;99.90;;;6.99;100.00;96424.59;4985896;28;1962;-68
2023/11/10 00:42:07;;;;;;;;;;;7.70;99.90;;;6.96;100.00;96419.59;4984687;28;1938;-68
2023/11/10 00:44:34;;;;;;;;;;;7.70;99.90;;;6.88;100.00;96416.53;4983510;28;1892;-68
2023/11/10 00:47:01;;;;;;;;;;;7.70;99.90;;;6.94;100.00;96397.38;4984379;28;1881;-68
2023/11/10 00:49:27;;;;;;;;;;;7.70;99.90;;;6.99;100.00;96385.91;4985844;28;1841;-68
2023/11/10 00:51:54;;;;;;;;;;;7.70;99.90;;;6.90;100.00;96383.75;4986095;28;2042;-68
2023/11/10 00:54:21;;;;;;;;;;;7.70;99.90;;;6.91;100.00;96375.97;4985873;28;1716;-68
2023/11/10 00:56:48;;;;;;;;;;;7.70;99.90;;;6.86;100.00;96380.47;4983769;28;1632;-68
2023/11/10 00:59:15;;;;;;;;;;;7.70;99.90;;;6.95;100.00;96375.81;4982721;28;2048;-68
2023/11/10 01:01:44;;;;;;;;;;;7.70;99.90;;;6.90;100.00;96376.03;4986805;28;1754;-68
2023/11/10 01:04:12;;;;;;;;;;;7.70;99.90;;;6.93;100.00;96372.47;4979806;28;1892;-68
2023/11/10 01:06:39;;;;;;;;;;;7.70;99.90;;;6.97;100.00;96366.25;4986023;28;2019;-68
2023/11/10 01:09:06;;;;;;;;;;;7.70;99.90;;;6.84;100.00;96361.69;4999495;28;1820;-68
2023/11/10 01:11:33;;;;;;;;;;;7.70;99.90;;;6.85;100.00;96352.19;4984689;28;1806;-68
2023/11/10 01:14:00;;;;;;;;;;;7.70;99.90;;;6.84;100.00;96359.09;4986839;28;2246;-67
2023/11/10 01:16:28;;;;;;;;;;;7.60;99.90;;;6.82;100.00;96352.31;4985989;28;1766;-68
2023/11/10 01:18:56;;;;;;;;;;;7.60;99.90;;;6.82;100.00;96355.75;4983680;28;1934;-68
2023/11/10 01:21:23;;;;;;;;;;;7.50;99.90;;;6.80;100.00;96360.16;4984070;28;1926;-68
2023/11/10 01:23:52;;;;;;;;;;;7.50;99.90;;;6.73;100.00;96353.63;4978104;28;1806;-68
2023/11/10 01:26:19;;;;;;;;;;;7.50;99.90;;;6.83;100.00;96357.41;4979007;28;1999;-68
2023/11/10 01:28:46;;;;;;;;;;;7.50;99.90;;;6.64;100.00;96352.28;4983663;28;1888;-68
2023/11/10 01:31:15;;;;;;;;;;;7.50;99.90;;;6.69;100.00;96352.91;4981585;28;2065;-67
2023/11/10 01:33:43;;;;;;;;;;;7.50;99.90;;;6.78;100.00;96343.91;4981262;28;1853;-68
2023/11/10 01:36:11;;;;;;;;;;;7.50;99.90;;;6.73;100.00;96335.56;4982416;28;1912;-68
2023/11/10 01:38:40;;;;;;;;;;;7.50;99.90;;;6.76;100.00;96335.41;4983612;28;1797;-68
2023/11/10 01:41:07;;;;;;;;;;;7.50;99.90;;;6.72;100.00;96322.72;4982701;28;1944;-68
2023/11/10 01:43:34;;;;;;;;;;;7.50;99.90;;;6.81;100.00;96330.84;4984603;28;1837;-68
2023/11/10 01:46:01;;;;;;;;;;;7.50;99.90;;;6.74;100.00;96326.91;4980764;28;1910;-68
2023/11/10 01:48:28;;;;;;;;;;;7.50;99.90;;;6.81;100.00;96330.84;4981808;28;1815;-68
2023/11/10 01:50:55;;;;;;;;;;;7.50;99.90;;;6.80;100.00;96326.63;4968169;28;1729;-68
2023/11/10 01:53:23;;;;;;;;;;;7.50;99.90;;;6.74;100.00;96326.91;4967161;28;2138;-68
2023/11/10 01:55:50;;;;;;;;;;;7.50;99.90;;;6.75;100.00;96328.59;4983687;28;1799;-68
2023/11/10 01:58:17;;;;;;;;;;;7.50;99.90;;;6.72;100.00;96322.72;4982028;28;1820;-68
2023/11/10 02:00:44;;;;;;;;;;;7.50;99.90;;;6.74;100.00;96336.41;4962913;28;1812;-69
2023/11/10 02:03:11;;;;;;;;;;;7.50;99.90;;;6.62;100.00;96333.47;4982866;28;1729;-69
2023/11/10 02:05:39;;;;;;;;;;;7.40;99.90;;;6.58;100.00;96334.53;4980769;28;1995;-69
2023/11/10 02:08:09;;;;;;;;;;;7.40;99.90;;;6.53;100.00;96327.94;4981338;28;1819;-70
2023/11/10 02:10:37;;;;;;;;;;;7.40;99.90;;;6.45;100.00;96331.69;4981210;28;2290;-68
2023/11/10 02:13:04;;;;;;;;;;;7.30;99.90;;;6.49;100.00;96329.78;4983672;28;1665;-69
2023/11/10 02:15:34;;;;;;;;;;;7.30;99.90;;;6.47;100.00;96323.88;4981513;28;1663;-68
2023/11/10 02:18:01;;;;;;;;;;;7.30;99.90;;;6.44;100.00;96332.59;4981242;28;1752;-69
2023/11/10 02:20:28;;;;;;;;;;;7.30;99.90;;;6.41;100.00;96326.72;4982661;28;1749;-69
2023/11/10 02:22:55;;;;;;;;;;;7.30;99.90;;;6.48;100.00;96326.38;4981320;28;2013;-69
2023/11/10 02:25:22;;;;;;;;;;;7.20;99.90;;;6.45;100.00;96323.09;4981745;28;1899;-68
2023/11/10 02:27:50;;;;;;;;;;;7.20;99.90;;;6.44;100.00;96324.03;4982432;28;1748;-69
2023/11/10 02:30:18;;;;;;;;;;;7.20;99.90;;;6.49;100.00;96327.22;4984209;28;1472;-69
2023/11/10 02:32:46;;;;;;;;;;;7.30;99.90;;;6.44;100.00;96319.69;4982214;28;1747;-69
2023/11/10 02:35:15;;;;;;;;;;;7.30;99.90;;;6.51;100.00;96319.44;4984618;28;1623;-68
2023/11/10 02:37:42;;;;;;;;;;;7.30;99.90;;;6.54;100.00;96314.13;4981936;28;1481;-69
2023/11/10 02:40:10;;;;;;;;;;;7.30;99.90;;;6.48;100.00;96320.41;4981783;28;1667;-69
2023/11/10 02:42:37;;;;;;;;;;;7.30;99.90;;;6.48;100.00;96318.66;4983471;28;1666;-68
2023/11/10 02:45:05;;;;;;;;;;;7.30;99.90;;;6.49;100.00;96324.63;4987050;28;1595;-69
2023/11/10 02:47:33;;;;;;;;;;;7.30;99.90;;;6.50;100.00;96318.59;4985341;28;1697;-68
2023/11/10 02:50:00;;;;;;;;;;;7.30;99.90;;;6.51;100.00;96315.09;4983018;28;1932;-68
2023/11/10 02:52:26;;;;;;;;;;;7.30;99.90;;;6.59;100.00;96331.06;4981717;28;1499;-67
2023/11/10 02:54:53;;;;;;;;;;;7.30;99.90;;;6.60;100.00;96319.00;4984825;28;1519;-68
2023/11/10 02:57:21;;;;;;;;;;;7.40;99.90;;;6.58;100.00;96320.81;4984441;28;1541;-68
2023/11/10 02:59:49;;;;;;;;;;;7.40;99.90;;;6.54;100.00;96329.59;4983375;28;1442;-68
2023/11/10 03:02:16;;;;;;;;;;;7.40;99.90;;;6.56;100.00;96309.72;4981246;28;1862;-68
2023/11/10 03:04:44;;;;;;;;;;;7.30;99.90;;;6.60;100.00;96321.56;4983526;28;1508;-68
2023/11/10 03:07:12;;;;;;;;;;;7.30;99.90;;;6.59;100.00;96315.59;4982929;28;1977;-69
2023/11/10 03:09:44;;;;;;;;;;;7.30;99.90;;;6.60;100.00;96319.00;4984314;28;1607;-68
2023/11/10 03:12:11;;;;;;;;;;;7.30;99.90;;;6.58;100.00;96318.22;4984769;28;1772;-68
2023/11/10 03:14:43;;;;;;;;;;;7.40;99.90;;;6.74;100.00;96313.19;4987565;28;1574;-67
2023/11/10 03:17:10;;;;;;;;;;;7.30;99.90;;;6.62;100.00;96309.44;4986614;28;1542;-68
2023/11/10 03:19:37;;;;;;;;;;;7.40;99.90;;;6.61;100.00;96306.00;4985868;28;1465;-68
2023/11/10 03:22:04;;;;;;;;;;;7.30;99.90;;;6.62;100.00;96317.19;4988137;28;1597;-68
2023/11/10 03:24:31;;;;;;;;;;;7.30;99.90;;;6.70;100.00;96315.06;4988321;28;1601;-68
2023/11/10 03:26:58;;;;;;;;;;;7.30;99.90;;;6.73;100.00;96322.66;4986211;28;1899;-68
2023/11/10 03:29:28;;;;;;;;;;;7.40;99.90;;;6.71;100.00;96321.91;4989148;28;1690;-68
2023/11/10 03:31:55;;;;;;;;;;;7.30;99.90;;;6.78;100.00;96327.59;4987768;28;1693;-68
2023/11/10 03:34:23;;;;;;;;;;;7.30;99.90;;;6.60;100.00;96309.50;4986061;28;1566;-68
2023/11/10 03:36:50;;;;;;;;;;;7.30;99.90;;;6.63;100.00;96300.78;4984790;28;1469;-68
2023/11/10 03:39:17;;;;;;;;;;;7.30;99.90;;;6.62;100.00;96297.38;4987946;28;1650;-68
2023/11/10 03:41:44;;;;;;;;;;;7.40;99.90;;;6.69;100.00;96321.13;4983768;28;1632;-68
2023/11/10 03:44:12;;;;;;;;;;;7.30;99.90;;;6.75;100.00;96325.16;4983305;28;1500;-67
2023/11/10 03:46:39;;;;;;;;;;;7.40;99.90;;;6.61;100.00;96306.00;4985083;28;1980;-68
2023/11/10 03:49:08;;;;;;;;;;;7.40;99.90;;;6.72;100.00;96335.63;4985904;28;1579;-67
2023/11/10 03:51:35;;;;;;;;;;;7.30;99.90;;;6.63;100.00;96335.13;4986914;28;1449;-69
2023/11/10 03:54:02;;;;;;;;;;;7.30;99.90;;;6.59;100.00;96327.63;4986403;28;1670;-68
2023/11/10 03:56:33;;;;;;;;;;;7.30;99.90;;;6.54;100.00;96329.59;4989123;28;1484;-68
2023/11/10 03:59:04;;;;;;;;;;;7.30;99.90;;;6.53;100.00;96333.91;4983877;28;1786;-68
2023/11/10 04:01:32;;;;;;;;;;;7.30;99.90;;;6.58;100.00;96331.94;4986246;28;1470;-68
2023/11/10 04:04:00;;;;;;;;;;;7.30;99.90;;;6.58;100.00;96337.09;4981993;28;1564;-67
2023/11/10 04:06:27;;;;;;;;;;;7.30;99.90;;;6.49;100.00;96334.94;4971468;28;2005;-68
2023/11/10 04:09:05;;;;;;;;;;;7.30;99.90;;;6.49;100.00;96335.78;4987365;28;1722;-68
2023/11/10 04:11:32;;;;;;;;;;;7.30;99.90;;;6.46;100.00;96342.84;4984423;28;1517;-67
2023/11/10 04:13:59;;;;;;;;;;;7.20;99.90;;;6.51;100.00;96342.63;4986469;28;1546;-67
2023/11/10 04:16:26;;;;;;;;;;;7.20;99.90;;;6.46;100.00;96330.78;4988199;28;1862;-68
2023/11/10 04:18:54;;;;;;;;;;;7.20;99.90;;;6.50;100.00;96328.91;4986292;28;1460;-68
2023/11/10 04:21:24;;;;;;;;;;;7.20;99.90;;;6.48;100.00;96334.13;4982071;28;1745;-68
2023/11/10 04:23:51;;;;;;;;;;;7.20;99.90;;;6.47;100.00;96332.44;4986148;28;1500;-68
2023/11/10 04:26:18;;;;;;;;;;;7.20;99.90;;;6.47;100.00;96316.13;4986056;28;1914;-68
2023/11/10 04:28:48;;;;;;;;;;;7.20;99.90;;;6.43;100.00;96330.94;4984262;28;1540;-69
2023/11/10 04:31:15;;;;;;;;;;;7.20;99.90;;;6.41;100.00;96337.03;4984741;28;1562;-68
2023/11/10 04:33:43;;;;;;;;;;;7.20;99.90;;;6.44;100.00;96313.72;4983241;28;1876;-68
2023/11/10 04:36:14;;;;;;;;;;;7.20;99.90;;;6.44;100.00;96317.13;4984576;28;1457;-68
2023/11/10 04:38:45;;;;;;;;;;;7.10;99.90;;;6.43;100.00;96324.91;4982526;28;1699;-68
2023/11/10 04:41:12;;;;;;;;;;;7.20;99.90;;;6.52;100.00;96326.25;4982097;28;1566;-68
2023/11/10 04:43:42;;;;;;;;;;;7.10;99.90;;;6.33;100.00;96313.38;4987218;28;1607;-68
2023/11/10 04:46:09;;;;;;;;;;;7.10;99.90;;;6.32;100.00;96317.69;4997050;28;1998;-68
2023/11/10 04:48:36;;;;;;;;;;;7.10;99.90;;;6.34;100.00;96321.03;4998385;28;1562;-68
2023/11/10 04:51:03;;;;;;;;;;;7.00;99.90;;;6.23;100.00;96315.53;4984043;28;1770;-68
2023/11/10 04:53:31;;;;;;;;;;;7.00;99.90;;;6.27;100.00;96328.22;4984853;28;1453;-68
2023/11/10 04:56:00;;;;;;;;;;;6.90;99.90;;;6.35;100.00;96322.69;4980526;28;1614;-68
2023/11/10 04:58:27;;;;;;;;;;;6.90;99.90;;;6.19;100.00;96317.41;4983827;28;1649;-68
2023/11/10 05:00:53;;;;;;;;;;;7.00;99.90;;;6.31;100.00;96318.59;4985799;28;1654;-68
2023/11/10 05:03:21;;;;;;;;;;;6.90;99.90;;;6.22;100.00;96321.59;4998933;28;1473;-68
2023/11/10 05:05:48;;;;;;;;;;;7.00;99.90;;;6.15;100.00;96321.03;4984773;28;1906;-68
2023/11/10 05:08:15;;;;;;;;;;;7.00;99.90;;;6.05;100.00;96330.09;4978705;28;1501;-68
2023/11/10 05:10:43;;;;;;;;;;;6.90;99.90;;;5.96;100.00;96318.44;4983632;28;1607;-68
2023/11/10 05:13:10;;;;;;;;;;;6.80;99.90;;;5.92;100.00;96334.91;4981431;28;1889;-68
2023/11/10 05:15:38;;;;;;;;;;;6.80;99.90;;;5.84;100.00;96319.78;4986554;28;1645;-68
2023/11/10 05:18:07;;;;;;;;;;;6.70;99.90;;;5.83;100.00;96330.16;4984013;28;1879;-68
2023/11/10 05:20:34;;;;;;;;;;;6.70;99.90;;;5.77;100.00;96339.00;4986241;28;1527;-68
2023/11/10 05:23:01;;;;;;;;;;;6.60;99.90;;;5.80;100.00;96340.59;4980924;28;1547;-68
2023/11/10 05:25:28;;;;;;;;;;;6.60;99.90;;;5.80;100.00;96345.75;4982597;28;1472;-68
2023/11/10 05:27:56;;;;;;;;;;;6.50;99.90;;;5.69;100.00;96342.78;4984516;28;1975;-68
2023/11/10 05:30:27;;;;;;;;;;;6.50;99.90;;;5.73;100.00;96337.44;4984263;28;1555;-68
2023/11/10 05:32:54;;;;;;;;;;;6.50;99.90;;;5.69;100.00;96345.38;4983537;28;1582;-68
2023/11/10 05:35:21;;;;;;;;;;;6.50;99.90;;;5.63;100.00;96349.88;4984395;28;1586;-68
2023/11/10 05:37:48;;;;;;;;;;;6.50;99.90;;;5.72;100.00;96355.53;4982254;28;1677;-68
2023/11/10 05:40:18;;;;;;;;;;;6.50;99.90;;;5.68;100.00;96369.44;4982902;28;1473;-68
2023/11/10 05:42:45;;;;;;;;;;;6.50;99.90;;;5.71;100.00;96357.28;4982762;28;1815;-68
2023/11/10 05:45:11;;;;;;;;;;;6.40;99.90;;;5.70;100.00;96365.88;4985119;28;1538;-68
2023/11/10 05:47:38;;;;;;;;;;;6.50;99.90;;;5.72;100.00;96374.38;4985396;28;2005;-67
2023/11/10 05:50:06;;;;;;;;;;;6.40;99.90;;;5.70;100.00;96365.06;4985065;28;1874;-68
2023/11/10 05:52:33;;;;;;;;;;;6.40;99.90;;;5.73;100.00;96380.38;4983577;28;1595;-67
2023/11/10 05:55:00;;;;;;;;;;;6.50;99.90;;;5.72;100.00;96376.13;4979606;28;1539;-68
2023/11/10 05:57:27;;;;;;;;;;;6.50;99.90;;;5.73;100.00;96378.63;4983905;28;1559;-68
2023/11/10 05:59:55;;;;;;;;;;;6.50;99.90;;;5.70;100.00;96385.66;4985442;28;1762;-68
2023/11/10 06:02:22;;;;;;;;;;;6.50;99.90;;;5.71;100.00;96375.28;4996688;28;1948;-68
2023/11/10 06:04:49;;;;;;;;;;;6.40;99.90;;;5.60;100.00;96382.63;4985287;28;1442;-68
2023/11/10 06:07:16;;;;;;;;;;;6.40;99.90;;;5.65;100.00;96375.53;4981681;28;1907;-68
2023/11/10 06:09:43;;;;;;;;;;;6.40;99.90;;;5.60;100.00;96388.59;4983203;28;1395;-68
2023/11/10 06:12:12;;;;;;;;;;;6.40;99.90;;;5.63;100.00;96380.78;4982534;28;1660;-68
2023/11/10 06:14:41;;;;;;;;;;;6.40;99.90;;;5.70;100.00;96380.50;4983506;28;1609;-68
2023/11/10 06:17:08;;;;;;;;;;;6.40;99.90;;;5.65;100.00;96383.25;4982363;28;1519;-68
2023/11/10 06:19:38;;;;;;;;;;;6.40;99.90;;;5.64;100.00;96386.75;4984774;28;1435;-68
2023/11/10 06:22:05;;;;;;;;;;;6.40;99.90;;;5.73;100.00;96383.78;4981637;28;1586;-68
2023/11/10 06:24:31;;;;;;;;;;;6.40;99.90;;;5.68;100.00;96374.56;4983555;28;1022;-68
2023/11/10 06:26:58;;;;;;;;;;;6.40;99.90;;;5.70;100.00;96380.50;4983931;28;1985;-68
2023/11/10 06:29:25;;;;;;;;;;;6.40;99.90;;;5.65;100.00;96384.09;4983820;28;1499;-68
2023/11/10 06:31:53;;;;;;;;;;;6.50;99.90;;;5.63;100.00;96382.50;4982691;28;1738;-68
2023/11/10 06:34:21;;;;;;;;;;;6.40;99.90;;;5.74;100.00;96384.63;4986197;28;1355;-68
2023/11/10 06:36:50;;;;;;;;;;;6.50;99.90;;;5.77;100.00;96393.06;4981516;28;1575;-68
2023/11/10 06:39:17;;;;;;;;;;;6.40;99.90;;;5.68;100.00;96390.88;4978538;28;1538;-68
2023/11/10 06:41:45;;;;;;;;;;;6.50;99.90;;;5.70;100.00;96380.50;4983164;28;1673;-68
2023/11/10 06:44:16;;;;;;;;;;;6.50;99.90;;;5.68;100.00;96380.59;4981691;28;1663;-68
2023/11/10 06:46:43;;;;;;;;;;;6.50;99.90;;;5.80;100.00;96404.97;4986522;28;1988;-67
2023/11/10 06:49:10;;;;;;;;;;;6.50;99.90;;;5.64;100.00;96390.16;4985789;28;1451;-68
2023/11/10 06:51:37;;;;;;;;;;;6.50;99.90;;;5.78;100.00;96389.56;4986587;28;1521;-68
2023/11/10 06:54:05;;;;;;;;;;;6.50;99.90;;;5.78;100.00;96397.31;4989926;28;1472;-68
2023/11/10 06:56:32;;;;;;;;;;;6.50;99.90;;;5.75;100.00;96394.88;4987472;28;1614;-68
2023/11/10 06:58:59;;;;;;;;;;;6.50;99.90;;;5.75;100.00;96394.03;4987623;28;1382;-68
2023/11/10 07:01:28;;;;;;;;;;;6.50;99.90;;;5.79;100.00;96409.28;4985602;28;1803;-68
2023/11/10 07:03:55;;;;;;;;;;;6.50;99.90;;;5.87;100.00;96403.81;4983652;28;1106;-67
2023/11/10 07:06:22;;;;;;;;;;;6.50;99.90;;;5.85;100.00;96398.72;4983019;28;2056;-68
2023/11/10 07:08:50;;;;;;;;;;;6.60;99.90;;;5.79;100.00;96401.56;4988141;28;1249;-68
2023/11/10 07:11:20;;;;;;;;;;;6.60;99.90;;;5.90;100.00;96408.81;4985015;28;1456;-67
2023/11/10 07:13:49;;;;;;;;;;;6.60;99.90;;;5.93;100.00;96407.84;4987283;28;1002;-68
2023/11/10 07:16:20;;;;;;;;;;;6.60;99.90;;;5.84;100.00;96407.34;4979192;28;1095;-67
2023/11/10 07:18:48;;;;;;;;;;;6.60;99.90;;;5.94;100.00;96402.66;4984080;28;1031;-69
2023/11/10 07:21:15;;;;;;;;;;;6.60;99.90;;;5.89;100.00;96406.31;4986329;28;1633;-67
2023/11/10 07:23:42;;;;;;;;;;;6.60;99.90;;;5.81;100.00;96383.44;4983865;28;1108;-68
2023/11/10 07:26:09;;;;;;;;;;;6.60;99.90;;;5.86;100.00;96396.97;4982968;28;1403;-68
2023/11/10 07:28:36;;;;;;;;;;;6.60;99.90;;;5.86;100.00;96404.69;4983837;28;1902;-67
2023/11/10 07:31:04;;;;;;;;;;;6.60;99.90;;;5.88;100.00;96397.72;4985384;28;1400;-68
2023/11/10 07:33:31;;;;;;;;;;;6.50;99.90;;;5.77;100.00;96407.66;4985298;28;1476;-67
2023/11/10 07:35:58;;;;;;;;;;;6.50;99.90;;;5.88;100.00;96400.31;4983650;28;1475;-68
2023/11/10 07:38:24;;;;;;;;;;;6.50;99.90;;;5.84;100.00;96397.03;4985758;28;1448;-68
2023/11/10 07:40:51;;;;;;;;;;;6.50;99.90;;;5.90;100.00;96419.09;4985913;28;1443;-67
2023/11/10 07:43:18;;;;;;;;;;;6.50;99.90;;;5.97;100.00;96422.28;4984876;28;1538;-67
2023/11/10 07:45:45;;;;;;;;;;;6.60;99.90;;;5.98;100.00;96413.69;4984578;28;1427;-68
2023/11/10 07:48:13;;;;;;;;;;;6.60;99.90;;;5.94;100.00;96422.41;4987254;28;1902;-68
2023/11/10 07:50:41;;;;;;;;;;;6.70;99.90;;;5.87;100.00;96420.09;4985850;28;1570;-68
2023/11/10 07:53:08;;;;;;;;;;;6.70;99.90;;;5.86;100.00;96431.31;4983197;28;1613;-69
2023/11/10 07:55:35;;;;;;;;;;;6.60;99.90;;;5.85;100.00;96439.91;4985640;28;1332;-69
2023/11/10 07:58:03;;;;;;;;;;;6.50;99.90;;;5.86;100.00;96440.75;4985703;28;1594;-69
2023/11/10 08:00:30;;;;;;;;;;;6.50;99.90;;;5.94;100.00;96443.00;4986709;28;1439;-68
2023/11/10 08:02:57;;;;;;;;;;;6.50;99.90;;;5.97;100.00;96433.44;4980598;28;1423;-69
2023/11/10 08:05:24;;;;;;;;;;;6.40;99.90;;;5.85;100.00;96431.34;4984367;28;1395;-69
2023/11/10 08:07:52;;;;;;;;;;;6.40;99.90;;;5.86;100.00;96433.00;4987484;28;1906;-69
2023/11/10 08:10:20;;;;;;;;;;;6.50;99.90;;;5.91;100.00;96436.25;4984826;28;1439;-69
2023/11/10 08:12:47;;;;;;;;;;;6.50;99.90;;;5.84;100.00;96422.81;4984588;28;1328;-69
2023/11/10 08:15:14;;;;;;;;;;;6.50;99.90;;;5.99;100.00;96434.22;4984178;28;1023;-69
2023/11/10 08:17:41;;;;;;;;;;;6.50;99.90;;;5.97;100.00;96427.44;4985727;28;1657;-69
2023/11/10 08:20:09;;;;;;;;;;;6.60;99.90;;;6.13;100.00;96433.59;4982585;28;1007;-68
2023/11/10 08:22:37;;;;;;;;;;;6.70;99.90;;;6.13;100.00;96425.88;4982306;28;1312;-69
2023/11/10 08:25:05;;;;;;;;;;;6.80;99.90;;;6.11;100.00;96458.59;4985132;28;1269;-69
2023/11/10 08:27:33;;;;;;;;;;;6.80;99.90;;;6.17;100.00;96457.50;4982264;28;1926;-68
2023/11/10 08:30:00;;;;;;;;;;;6.70;99.90;;;6.19;100.00;96456.53;4983607;28;1459;-69
2023/11/10 08:32:27;;;;;;;;;;;6.80;99.90;;;6.17;100.00;96463.50;4982089;28;1483;-68
2023/11/10 08:34:55;;;;;;;;;;;6.80;99.90;;;6.25;100.00;96469.16;4986753;28;1469;-68
2023/11/10 08:37:22;;;;;;;;;;;6.80;99.90;;;6.18;100.00;96451.44;4985041;28;1360;-68
2023/11/10 08:39:49;;;;;;;;;;;6.80;99.90;;;6.14;100.00;96466.22;4982993;28;1575;-68
2023/11/10 08:42:16;;;;;;;;;;;6.90;99.90;;;6.17;100.00;96454.94;4984824;28;1794;-68
2023/11/10 08:44:46;;;;;;;;;;;6.90;99.90;;;6.20;100.00;96458.22;4983919;28;1399;-68
2023/11/10 08:47:22;;;;;;;;;;;6.90;99.90;;;6.27;100.00;96453.63;4985674;28;1969;-68
2023/11/10 08:49:49;;;;;;;;;;;6.90;99.90;;;6.35;100.00;96461.88;4983084;28;1306;-68
2023/11/10 08:52:18;;;;;;;;;;;7.00;99.90;;;6.31;100.00;96452.59;4982830;28;1471;-67
2023/11/10 08:54:46;;;;;;;;;;;7.00;99.90;;;6.31;100.00;96442.28;4982254;28;1606;-67
2023/11/10 08:57:13;;;;;;;;;;;7.10;99.90;;;6.27;100.00;96445.91;4986421;28;1473;-68
2023/11/10 08:59:40;;;;;;;;;;;7.00;99.90;;;6.22;100.00;96450.41;4984466;28;1374;-68
2023/11/10 09:02:06;;;;;;;;;;;7.00;99.90;;;6.33;100.00;96444.81;4985950;28;1502;-68
2023/11/10 09:04:33;;;;;;;;;;;7.10;99.90;;;6.28;100.00;96453.56;4985697;28;1061;-68
2023/11/10 09:07:00;;;;;;;;;;;7.10;99.90;;;6.37;100.00;96454.09;4983010;28;1947;-67
2023/11/10 09:09:30;;;;;;;;;;;7.00;99.90;;;6.32;100.00;96453.44;4973209;28;1861;-68
2023/11/10 09:11:57;;;;;;;;;;;7.00;99.90;;;6.34;100.00;96447.31;4984454;28;1431;-67
2023/11/10 09:14:24;;;;;;;;;;;7.00;99.90;;;6.24;100.00;96449.44;4983532;28;1494;-68
2023/11/10 09:16:51;;;;;;;;;;;7.00;99.90;;;6.36;100.00;96449.81;4982517;28;1396;-68
2023/11/10 09:19:20;;;;;;;;;;;7.00;99.90;;;6.25;100.00;96445.16;4980884;28;1526;-68
2023/11/10 09:21:48;;;;;;;;;;;7.00;99.90;;;6.30;100.00;96457.84;4983432;28;1422;-68
2023/11/10 09:24:15;;;;;;;;;;;7.00;99.90;;;6.46;100.00;96461.41;4985312;28;1272;-68
2023/11/10 09:26:43;;;;;;;;;;;7.00;99.90;;;6.24;100.00;96464.91;4980605;28;1383;-68
2023/11/10 09:29:10;;;;;;;;;;;7.00;99.90;;;6.33;100.00;96449.97;4980852;28;1976;-68
2023/11/10 09:31:38;;;;;;;;;;;7.00;99.90;;;6.31;100.00;96467.22;4985576;28;1703;-68
2023/11/10 09:34:05;;;;;;;;;;;7.00;99.90;;;6.28;100.00;96473.34;4983456;28;1392;-68
2023/11/10 09:36:33;;;;;;;;;;;6.90;99.90;;;6.16;100.00;96469.56;5000358;28;1277;-68
2023/11/10 09:39:01;;;;;;;;;;;6.90;99.90;;;6.28;100.00;96475.94;4983913;28;1534;-67
2023/11/10 09:41:36;;;;;;;;;;;6.80;99.90;;;6.24;100.00;96458.91;4985711;28;1555;-68
2023/11/10 09:44:05;;;;;;;;;;;6.90;99.90;;;6.25;100.00;96460.63;4984569;28;1543;-68
2023/11/10 09:46:32;;;;;;;;;;;6.90;99.90;;;6.22;100.00;96465.88;4984044;28;1470;-68
2023/11/10 09:49:01;;;;;;;;;;;7.00;99.90;;;6.15;100.00;96469.63;4981031;28;1914;-68
2023/11/10 09:51:28;;;;;;;;;;;6.90;99.90;;;6.14;100.00;96470.53;4982360;28;1272;-68
2023/11/10 09:53:56;;;;;;;;;;;6.90;99.90;;;6.19;100.00;96464.28;4986613;28;1400;-68
2023/11/10 09:56:23;;;;;;;;;;;6.90;99.90;;;6.18;100.00;96464.34;4980226;28;1310;-67
2023/11/10 09:58:50;;;;;;;;;;;6.80;99.90;;;6.29;100.00;96462.13;4980914;28;1453;-68
2023/11/10 10:01:17;;;;;;;;;;;6.80;99.90;;;6.31;100.00;96460.31;4983383;28;1818;-68
2023/11/10 10:03:44;;;;;;;;;;;6.90;99.90;;;6.40;100.00;96451.34;4982886;28;1065;-68
2023/11/10 10:06:13;;;;;;;;;;;7.10;99.90;;;6.49;100.00;96456.09;4981302;28;1677;-68
2023/11/10 10:08:42;;;;;;;;;;;7.10;99.90;;;6.49;100.00;96461.25;4979919;28;1984;-68
2023/11/10 10:11:09;;;;;;;;;;;7.20;99.90;;;6.62;100.00;96464.16;4982013;28;1430;-68
2023/11/10 10:13:39;;;;;;;;;;;7.30;99.90;;;6.63;100.00;96446.00;4981036;28;1095;-68
2023/11/10 10:16:07;;;;;;;;;;;7.30;99.90;;;6.70;100.00;96454.31;4979313;28;1540;-68
2023/11/10 10:18:34;;;;;;;;;;;7.30;99.90;;;6.69;100.00;96438.00;4982545;28;1525;-68
2023/11/10 10:21:01;;;;;;;;;;;7.30;99.90;;;6.78;100.00;96418.69;4981331;28;1649;-68
2023/11/10 10:23:28;;;;;;;;;;;7.40;99.90;;;6.84;100.00;96417.56;4992945;28;1113;-68
2023/11/10 10:25:58;;;;;;;;;;;7.30;99.90;;;6.72;100.00;96398.34;4980335;28;986;-68
2023/11/10 10:28:24;;;;;;;;;;;7.40;99.90;;;7.01;100.00;96394.41;4986683;28;1903;-68
2023/11/10 10:30:51;;;;;;;;;;;7.40;99.90;;;6.79;100.00;96378.25;4965146;28;1666;-68
2023/11/10 10:33:18;;;;;;;;;;;7.50;99.90;;;6.98;100.00;96379.09;4995643;28;1647;-67
2023/11/10 10:35:45;;;;;;;;;;;7.40;99.90;;;6.74;100.00;96359.59;4981752;28;1415;-68
2023/11/10 10:38:17;;;;;;;;;;;7.50;99.90;;;6.75;100.00;96354.38;4980779;28;1434;-69
2023/11/10 10:40:44;;;;;;;;;;;7.40;99.90;;;6.83;100.00;96347.09;4974836;28;1708;-68
2023/11/10 10:43:12;;;;;;;;;;;7.40;99.90;;;7.02;100.00;96353.97;4980189;28;1360;-68
2023/11/10 10:45:40;;;;;;;;;;;7.40;99.90;;;7.03;100.00;96325.50;4979612;28;1561;-68
2023/11/10 10:48:07;;;;;;;;;;;7.50;99.90;;;6.97;100.00;96343.03;4980282;28;1987;-68
2023/11/10 10:50:34;;;;;;;;;;;7.60;99.90;;;6.90;100.00;96337.31;4970103;28;1402;-68
2023/11/10 10:53:02;;;;;;;;;;;7.60;99.90;;;6.93;100.00;96316.53;4968047;28;1633;-68
2023/11/10 10:55:30;;;;;;;;;;;7.50;99.90;;;7.07;100.00;96315.88;4983285;28;1436;-68
2023/11/10 10:57:57;;;;;;;;;;;7.60;99.90;;;7.01;100.00;96311.03;4981742;28;1434;-68
2023/11/10 11:00:25;;;;;;;;;;;7.60;99.90;;;7.19;100.00;96312.69;4980882;28;1402;-67
2023/11/10 11:02:56;;;;;;;;;;;7.70;99.90;;;7.37;100.00;96303.22;4977796;28;1541;-67
2023/11/10 11:05:38;;;;;;;;;;;7.80;99.90;;;7.39;100.00;96288.47;4980157;28;1456;-67
2023/11/10 11:08:29;;;;;;;;;;;8.00;99.90;;;7.42;100.00;96301.22;4982422;28;1950;-67
2023/11/10 11:11:21;;;;;;;;;;;7.90;99.90;;;7.05;100.00;96279.84;4979478;28;1687;-66
2023/11/10 11:13:52;;;;;;;;;;;7.90;99.90;;;7.16;100.00;96276.75;4984871;28;1192;-68
2023/11/10 11:16:34;;;;;;;;;;;7.90;99.90;;;7.35;100.00;96301.63;4979092;28;1547;-67
2023/11/10 11:19:22;;;;;;;;;;;7.90;99.90;;;7.48;100.00;96275.09;4980594;28;1368;-67
2023/11/10 11:21:50;;;;;;;;;;;8.00;99.90;;;7.52;100.00;96261.09;4981501;28;1504;-67
2023/11/10 11:24:21;;;;;;;;;;;8.00;99.90;;;7.44;100.00;96275.34;4980613;28;1327;-67
2023/11/10 11:27:00;;;;;;;;;;;8.20;99.90;;;7.40;100.00;96279.81;4970339;28;1586;-67
2023/11/10 11:29:40;;;;;;;;;;;8.20;99.90;;;7.48;100.00;96287.16;4968818;28;1903;-68
2023/11/10 11:32:20;;;;;;;;;;;8.20;99.90;;;7.65;100.00;96281.97;4983131;28;1443;-68
2023/11/10 11:34:50;;;;;;;;;;;8.10;99.90;;;7.73;100.00;96266.94;4983319;28;1508;-68
2023/11/10 11:37:18;;;;;;;;;;;8.20;99.90;;;7.54;100.00;96263.63;4986410;28;1506;-68